createdAt,value
2023-04-18T00:02:10.965Z,12.87
2023-04-18T00:04:41.713Z,12.47
2023-04-18T00:07:13.441Z,14.17
2023-04-18T00:09:42.075Z,11.43
2023-04-18T00:12:11.745Z,14.47
2023-04-18T00:14:41.382Z,13.70
2023-04-18T00:17:10.351Z,12.93
2023-04-18T00:19:45.008Z,11.90
2023-04-18T00:22:16.801Z,15.07
2023-04-18T00:24:46.241Z,15.10
2023-04-18T00:27:17.481Z,13.90
2023-04-18T00:29:47.367Z,12.97
2023-04-18T00:32:19.849Z,14.83
2023-04-18T00:34:50.426Z,13.67
2023-04-18T00:37:22.388Z,12.37
2023-04-18T00:39:53.872Z,13.43
2023-04-18T00:42:25.729Z,16.93
2023-04-18T00:44:55.120Z,14.63
2023-04-18T00:47:26.151Z,12.23
2023-04-18T00:49:58.362Z,15.50
2023-04-18T00:52:28.647Z,12.90
2023-04-18T00:54:58.894Z,14.30
2023-04-18T00:57:27.940Z,14.20
2023-04-18T00:59:57.957Z,13.50
2023-04-18T01:02:31.632Z,13.37
2023-04-18T01:05:04.820Z,11.67
2023-04-18T01:07:34.285Z,12.73
2023-04-18T01:10:05.478Z,10.80
2023-04-18T01:12:34.571Z,14.37
2023-04-18T01:15:05.024Z,13.43
2023-04-18T01:17:36.188Z,10.43
2023-04-18T01:20:11.281Z,13.13
2023-04-18T01:22:42.794Z,10.20
2023-04-18T01:25:14.291Z,12.03
2023-04-18T01:27:45.764Z,12.77
2023-04-18T01:30:15.412Z,13.43
2023-04-18T01:32:45.977Z,12.03
2023-04-18T01:35:17.795Z,10.97
2023-04-18T01:37:47.125Z,9.20
2023-04-18T01:40:18.023Z,13.13
2023-04-18T01:42:48.994Z,12.27
2023-04-18T01:45:19.455Z,12.10
2023-04-18T01:47:48.600Z,13.70
2023-04-18T01:50:17.114Z,19.83
2023-04-18T01:52:46.911Z,13.50
2023-04-18T01:55:22.423Z,13.10
2023-04-18T01:57:53.088Z,15.60
2023-04-18T02:00:23.281Z,9.90
2023-04-18T02:02:51.928Z,14.60
2023-04-18T02:05:23.455Z,13.87
2023-04-18T02:07:52.173Z,16.47
2023-04-18T02:10:23.411Z,13.97
2023-04-18T02:12:51.930Z,14.47
2023-04-18T02:15:23.114Z,14.13
2023-04-18T02:17:52.561Z,13.57
2023-04-18T02:20:21.782Z,12.83
2023-04-18T02:22:50.526Z,16.40
2023-04-18T02:25:19.885Z,13.27
2023-04-18T02:27:51.207Z,18.90
2023-04-18T02:30:21.429Z,12.77
2023-04-18T02:32:53.721Z,14.17
2023-04-18T02:35:27.153Z,11.83
2023-04-18T02:37:56.548Z,13.40
2023-04-18T02:40:26.648Z,14.17
2023-04-18T02:42:57.608Z,12.60
2023-04-18T02:45:28.114Z,12.67
2023-04-18T02:48:01.619Z,14.37
2023-04-18T02:50:31.973Z,16.83
2023-04-18T02:53:01.204Z,17.33
2023-04-18T02:55:42.651Z,15.50
2023-04-18T02:58:15.780Z,12.50
2023-04-18T03:01:11.773Z,12.20
2023-04-18T03:03:54.021Z,11.90
2023-04-18T03:06:41.940Z,13.03
2023-04-18T03:09:13.250Z,12.80
2023-04-18T03:11:47.497Z,11.80
2023-04-18T03:14:18.834Z,15.57
2023-04-18T03:16:55.160Z,12.20
2023-04-18T03:19:28.800Z,14.93
2023-04-18T03:22:01.121Z,16.90
2023-04-18T03:24:30.761Z,17.30
2023-04-18T03:27:04.062Z,15.30
2023-04-18T03:29:35.313Z,12.73
2023-04-18T03:32:04.657Z,10.73
2023-04-18T03:34:34.251Z,14.83
2023-04-18T03:37:05.565Z,16.20
2023-04-18T03:39:40.610Z,11.13
2023-04-18T03:42:10.919Z,15.30
2023-04-18T03:44:45.691Z,13.60
2023-04-18T03:47:16.971Z,17.70
2023-04-18T03:49:49.968Z,13.80
2023-04-18T03:52:29.799Z,16.30
2023-04-18T03:54:59.182Z,15.23
2023-04-18T03:57:35.215Z,16.47
2023-04-18T04:00:15.156Z,14.90
2023-04-18T04:02:56.486Z,16.10
2023-04-18T04:05:25.953Z,15.43
2023-04-18T04:07:54.879Z,13.97
2023-04-18T04:10:24.170Z,13.97
2023-04-18T04:12:53.378Z,12.70
2023-04-18T04:15:24.138Z,16.10
2023-04-18T04:18:00.138Z,12.80
2023-04-18T04:20:30.375Z,14.63
2023-04-18T04:23:07.378Z,11.07
2023-04-18T04:25:39.547Z,47.87
2023-04-18T04:28:19.765Z,17.30
2023-04-18T04:30:56.650Z,15.03
2023-04-18T04:33:28.746Z,16.43
2023-04-18T04:36:02.068Z,15.23
2023-04-18T04:38:38.639Z,16.20
2023-04-18T04:41:09.582Z,15.83
2023-04-18T04:43:41.743Z,16.70
2023-04-18T04:46:15.635Z,13.03
2023-04-18T04:48:47.832Z,13.53
2023-04-18T04:51:16.820Z,13.20
2023-04-18T04:53:47.162Z,13.93
2023-04-18T04:56:15.781Z,34.87
2023-04-18T04:58:45.646Z,23.27
2023-04-18T05:01:26.096Z,16.47
2023-04-18T05:03:55.851Z,15.10
2023-04-18T05:06:25.918Z,16.60
2023-04-18T05:08:57.545Z,15.77
2023-04-18T05:11:26.552Z,12.90
2023-04-18T05:13:57.368Z,12.40
2023-04-18T05:16:29.212Z,15.80
2023-04-18T05:18:58.091Z,14.43
2023-04-18T05:21:28.881Z,15.90
2023-04-18T05:23:57.745Z,12.93
2023-04-18T05:26:28.563Z,13.60
2023-04-18T05:28:59.046Z,12.23
2023-04-18T05:31:29.241Z,15.50
2023-04-18T05:33:58.714Z,14.93
2023-04-18T05:36:32.729Z,14.10
2023-04-18T05:39:01.395Z,12.43
2023-04-18T05:41:30.557Z,14.50
2023-04-18T05:44:05.355Z,15.47
2023-04-18T05:46:36.519Z,15.03
2023-04-18T05:49:06.709Z,21.77
2023-04-18T05:51:37.612Z,16.70
2023-04-18T05:54:08.291Z,14.00
2023-04-18T05:56:40.258Z,15.50
2023-04-18T05:59:11.029Z,15.63
2023-04-18T06:01:41.318Z,15.93
2023-04-18T06:04:10.329Z,16.03
2023-04-18T06:06:42.201Z,16.63
2023-04-18T06:09:13.537Z,14.93
2023-04-18T06:11:42.322Z,14.60
2023-04-18T06:14:11.232Z,19.73
2023-04-18T06:16:41.981Z,16.27
2023-04-18T06:19:10.946Z,20.40
2023-04-18T06:21:44.721Z,15.60
2023-04-18T06:24:19.414Z,13.60
2023-04-18T06:26:49.080Z,17.23
2023-04-18T06:29:18.362Z,18.33
2023-04-18T06:31:53.932Z,15.60
2023-04-18T06:34:23.518Z,14.80
2023-04-18T06:36:53.253Z,18.07
2023-04-18T06:39:22.556Z,13.80
2023-04-18T06:41:53.858Z,18.27
2023-04-18T06:44:32.385Z,14.00
2023-04-18T06:47:03.122Z,19.43
2023-04-18T06:49:31.661Z,17.60
2023-04-18T06:52:01.527Z,21.87
2023-04-18T06:54:30.666Z,17.57
2023-04-18T06:57:02.237Z,18.80
2023-04-18T06:59:31.326Z,16.23
2023-04-18T07:02:02.049Z,14.50
2023-04-18T07:04:31.263Z,13.47
2023-04-18T07:07:00.110Z,12.80
2023-04-18T07:09:28.926Z,16.13
2023-04-18T07:12:01.414Z,14.93
2023-04-18T07:14:31.753Z,17.80
2023-04-18T07:17:05.388Z,15.37
2023-04-18T07:19:38.123Z,18.00
2023-04-18T07:22:07.564Z,68.00
2023-04-18T07:24:40.338Z,51.63
2023-04-18T07:27:11.116Z,16.60
2023-04-18T07:29:40.272Z,16.03
2023-04-18T07:32:11.007Z,16.37
2023-04-18T07:34:40.478Z,15.20
2023-04-18T07:37:14.667Z,15.43
2023-04-18T07:39:47.731Z,21.23
2023-04-18T07:42:18.158Z,16.20
2023-04-18T07:44:47.554Z,14.20
2023-04-18T07:47:22.419Z,16.80
2023-04-18T07:49:54.028Z,17.13
2023-04-18T07:52:25.818Z,15.40
2023-04-18T07:54:55.802Z,16.33
2023-04-18T07:57:24.876Z,18.23
2023-04-18T07:59:54.270Z,17.20
2023-04-18T08:02:27.561Z,18.80
2023-04-18T08:04:56.452Z,18.03
2023-04-18T08:07:25.690Z,17.87
2023-04-18T08:09:55.427Z,14.83
2023-04-18T08:12:27.087Z,16.73
2023-04-18T08:14:55.907Z,13.60
2023-04-18T08:17:28.304Z,15.60
2023-04-18T08:19:57.717Z,16.90
2023-04-18T08:22:30.156Z,14.53
2023-04-18T08:25:04.938Z,18.47
2023-04-18T08:27:34.373Z,13.77
2023-04-18T08:30:04.787Z,14.23
2023-04-18T08:32:38.442Z,14.90
2023-04-18T08:35:10.111Z,14.47
2023-04-18T08:37:41.890Z,15.70
2023-04-18T08:40:12.065Z,15.63
2023-04-18T08:42:45.318Z,13.63
2023-04-18T08:45:17.387Z,13.93
2023-04-18T08:47:48.608Z,12.67
2023-04-18T08:50:18.996Z,34.23
2023-04-18T08:52:49.763Z,14.20
2023-04-18T08:55:20.210Z,13.50
2023-04-18T08:57:50.663Z,12.07
2023-04-18T09:00:21.324Z,13.17
2023-04-18T09:02:57.756Z,19.70
2023-04-18T09:05:30.667Z,17.33
2023-04-18T09:08:00.505Z,15.03
2023-04-18T09:10:33.657Z,12.57
2023-04-18T09:13:04.741Z,13.50
2023-04-18T09:15:34.438Z,12.70
2023-04-18T09:18:07.697Z,13.80
2023-04-18T09:20:41.531Z,12.97
2023-04-18T09:23:15.553Z,12.27
2023-04-18T09:25:48.212Z,13.50
2023-04-18T09:28:27.415Z,12.33
2023-04-18T09:30:57.909Z,11.93
2023-04-18T09:33:32.611Z,13.07
2023-04-18T09:36:19.841Z,12.80
2023-04-18T09:38:56.227Z,10.40
2023-04-18T09:41:27.890Z,10.70
2023-04-18T09:44:14.310Z,10.57
2023-04-18T09:46:47.440Z,11.03
2023-04-18T09:49:20.374Z,12.40
2023-04-18T09:51:51.871Z,11.83
2023-04-18T09:54:21.464Z,10.73
2023-04-18T09:56:53.793Z,12.37
2023-04-18T09:59:40.004Z,10.83
2023-04-18T10:02:20.952Z,10.03
2023-04-18T10:04:52.767Z,11.87
2023-04-18T10:07:24.085Z,20.27
2023-04-18T10:09:53.513Z,11.80
2023-04-18T10:12:22.892Z,11.90
2023-04-18T10:14:53.691Z,8.70
2023-04-18T10:17:28.065Z,10.80
2023-04-18T10:20:12.447Z,10.37
2023-04-18T10:22:41.729Z,9.30
2023-04-18T10:25:13.961Z,9.20
2023-04-18T10:28:08.387Z,9.07
2023-04-18T10:31:03.101Z,8.07
2023-04-18T10:33:40.821Z,7.50
2023-04-18T10:36:20.843Z,10.50
2023-04-18T10:38:56.465Z,7.90
2023-04-18T10:41:28.407Z,8.47
2023-04-18T10:44:24.077Z,8.00
2023-04-18T10:47:24.791Z,8.30
2023-04-18T10:50:05.981Z,19.53
2023-04-18T10:52:37.588Z,29.70
2023-04-18T10:55:22.928Z,8.00
2023-04-18T10:57:56.038Z,12.83
2023-04-18T11:00:25.686Z,7.60
2023-04-18T11:02:58.203Z,8.40
2023-04-18T11:05:33.723Z,9.53
2023-04-18T11:08:06.016Z,7.70
2023-04-18T11:10:34.570Z,8.90
2023-04-18T11:13:09.845Z,11.20
2023-04-18T11:15:40.061Z,9.43
2023-04-18T11:18:13.097Z,9.07
2023-04-18T11:20:50.336Z,9.57
2023-04-18T11:23:25.314Z,11.47
2023-04-18T11:25:58.524Z,10.20
2023-04-18T11:28:31.588Z,10.00
2023-04-18T11:31:03.840Z,11.03
2023-04-18T11:33:34.135Z,10.73
2023-04-18T11:36:03.205Z,9.60
2023-04-18T11:38:34.968Z,8.37
2023-04-18T11:41:07.928Z,9.33
2023-04-18T11:43:36.643Z,8.90
2023-04-18T11:46:07.882Z,8.77
2023-04-18T11:48:38.720Z,9.20
2023-04-18T11:51:09.062Z,7.90
2023-04-18T11:53:40.550Z,6.60
2023-04-18T11:56:10.308Z,6.20
2023-04-18T11:58:41.363Z,4.53
2023-04-18T12:01:22.325Z,7.60
2023-04-18T12:04:06.983Z,6.10
2023-04-18T12:06:55.013Z,5.93
2023-04-18T12:09:27.696Z,5.30
2023-04-18T12:12:05.330Z,5.13
2023-04-18T12:14:39.707Z,6.37
2023-04-18T12:17:08.991Z,12.13
2023-04-18T12:19:38.158Z,4.17
2023-04-18T12:22:09.749Z,3.90
2023-04-18T12:24:44.624Z,5.17
2023-04-18T12:27:15.041Z,5.50
2023-04-18T12:29:44.580Z,5.20
2023-04-18T12:32:14.537Z,4.00
2023-04-18T12:34:43.457Z,4.80
2023-04-18T12:37:14.316Z,4.43
2023-04-18T12:39:46.018Z,4.90
2023-04-18T12:42:21.989Z,4.00
2023-04-18T12:44:51.890Z,3.93
2023-04-18T12:47:25.792Z,4.83
2023-04-18T12:49:54.569Z,4.47
2023-04-18T12:52:28.132Z,3.63
2023-04-18T12:54:58.661Z,4.57
2023-04-18T12:57:29.923Z,3.53
2023-04-18T13:00:00.212Z,4.37
2023-04-18T13:02:37.269Z,3.83
2023-04-18T13:05:09.900Z,3.60
2023-04-18T13:07:40.787Z,4.63
2023-04-18T13:10:17.647Z,4.10
2023-04-18T13:12:47.943Z,5.23
2023-04-18T13:15:18.368Z,4.07
2023-04-18T13:17:48.566Z,5.50
2023-04-18T13:20:18.154Z,4.10
2023-04-18T13:22:47.667Z,4.63
2023-04-18T13:25:20.464Z,5.23
2023-04-18T13:27:50.306Z,5.73
2023-04-18T13:30:21.125Z,4.80
2023-04-18T13:32:50.915Z,7.00
2023-04-18T13:35:21.116Z,4.80
2023-04-18T13:37:50.194Z,5.00
2023-04-18T13:40:20.841Z,4.87
2023-04-18T13:42:50.296Z,5.10
2023-04-18T13:45:19.326Z,4.87
2023-04-18T13:47:48.203Z,4.80
2023-04-18T13:50:19.554Z,5.17
2023-04-18T13:52:49.563Z,6.17
2023-04-18T13:55:20.603Z,4.97
2023-04-18T13:57:49.374Z,5.90
2023-04-18T14:00:20.706Z,4.00
2023-04-18T14:02:49.788Z,3.63
2023-04-18T14:05:18.900Z,3.73
2023-04-18T14:07:48.834Z,3.60
2023-04-18T14:10:19.440Z,3.40
2023-04-18T14:12:50.084Z,5.70
2023-04-18T14:15:20.191Z,10.37
2023-04-18T14:17:50.745Z,4.60
2023-04-18T14:20:20.587Z,3.43
2023-04-18T14:22:53.035Z,4.47
2023-04-18T14:25:22.523Z,5.13
2023-04-18T14:28:09.669Z,5.00
2023-04-18T14:30:39.735Z,5.67
2023-04-18T14:33:13.009Z,6.10
2023-04-18T14:35:41.658Z,5.30
2023-04-18T14:38:10.506Z,5.27
2023-04-18T14:40:39.574Z,5.70
2023-04-18T14:43:10.012Z,7.43
2023-04-18T14:45:40.348Z,4.57
2023-04-18T14:48:11.163Z,6.30
2023-04-18T14:50:44.303Z,6.27
2023-04-18T14:53:13.914Z,6.57
2023-04-18T14:55:43.234Z,5.50
2023-04-18T14:58:13.546Z,5.07
2023-04-18T15:00:43.048Z,7.63
2023-04-18T15:03:12.001Z,6.90
2023-04-18T15:05:43.339Z,6.27
2023-04-18T15:08:12.388Z,5.87
2023-04-18T15:10:42.662Z,5.63
2023-04-18T15:13:13.601Z,5.90
2023-04-18T15:15:43.482Z,8.17
2023-04-18T15:18:13.871Z,5.30
2023-04-18T15:20:43.122Z,7.73
2023-04-18T15:23:13.778Z,6.33
2023-04-18T15:25:43.038Z,5.10
2023-04-18T15:28:14.446Z,5.27
2023-04-18T15:30:45.011Z,5.97
2023-04-18T15:33:18.035Z,6.30
2023-04-18T15:35:47.186Z,5.50
2023-04-18T15:38:16.481Z,9.50
2023-04-18T15:40:45.751Z,5.60
2023-04-18T15:43:17.431Z,6.00
2023-04-18T15:45:47.915Z,5.90
2023-04-18T15:48:18.785Z,5.67
2023-04-18T15:50:53.912Z,7.07
2023-04-18T15:53:27.268Z,5.70
2023-04-18T15:55:56.301Z,5.47
2023-04-18T15:58:31.562Z,6.10
2023-04-18T16:01:03.076Z,6.13
2023-04-18T16:03:37.878Z,5.40
2023-04-18T16:06:07.213Z,4.50
2023-04-18T16:08:37.287Z,4.97
2023-04-18T16:11:06.589Z,5.60
2023-04-18T16:13:38.940Z,5.03
2023-04-18T16:16:08.807Z,6.20
2023-04-18T16:18:39.080Z,5.90
2023-04-18T16:21:11.236Z,4.50
2023-04-18T16:23:40.606Z,6.23
2023-04-18T16:26:10.286Z,5.20
2023-04-18T16:28:42.405Z,5.43
2023-04-18T16:31:12.900Z,6.03
2023-04-18T16:33:45.341Z,5.53
2023-04-18T16:36:17.466Z,5.20
2023-04-18T16:38:48.374Z,5.00
2023-04-18T16:41:17.663Z,5.17
2023-04-18T16:43:47.734Z,4.63
2023-04-18T16:46:16.950Z,7.23
2023-04-18T16:48:46.559Z,5.47
2023-04-18T16:51:18.282Z,6.67
2023-04-18T16:53:47.348Z,7.43
2023-04-18T16:56:23.688Z,6.60
2023-04-18T16:58:56.383Z,5.20
2023-04-18T17:01:26.209Z,6.10
2023-04-18T17:03:55.148Z,6.47
2023-04-18T17:06:25.101Z,8.17
2023-04-18T17:08:55.277Z,10.70
2023-04-18T17:11:27.086Z,12.90
2023-04-18T17:13:58.312Z,9.53
2023-04-18T17:16:32.577Z,6.50
2023-04-18T17:19:03.484Z,10.70
2023-04-18T17:21:33.672Z,7.40
2023-04-18T17:24:04.007Z,8.27
2023-04-18T17:26:33.476Z,7.03
2023-04-18T17:29:04.720Z,8.40
2023-04-18T17:31:35.844Z,8.20
2023-04-18T17:34:06.284Z,7.63
2023-04-18T17:36:37.868Z,11.47
2023-04-18T17:39:06.772Z,11.80
2023-04-18T17:41:38.662Z,9.60
2023-04-18T17:44:12.465Z,7.00
2023-04-18T17:46:42.694Z,8.67
2023-04-18T17:49:11.867Z,7.00
2023-04-18T17:51:40.977Z,9.87
2023-04-18T17:54:11.044Z,7.50
2023-04-18T17:56:45.468Z,8.87
2023-04-18T17:59:18.352Z,10.53
2023-04-18T18:01:51.138Z,13.50
2023-04-18T18:04:26.345Z,12.20
2023-04-18T18:06:57.758Z,9.60
2023-04-18T18:09:28.632Z,8.60
2023-04-18T18:11:58.666Z,10.00
2023-04-18T18:14:29.687Z,7.40
2023-04-18T18:16:59.622Z,7.13
2023-04-18T18:19:31.879Z,7.20
2023-04-18T18:22:02.183Z,6.63
2023-04-18T18:24:31.350Z,9.00
2023-04-18T18:27:02.027Z,7.60
2023-04-18T18:29:33.439Z,8.07
2023-04-18T18:32:03.802Z,10.63
2023-04-18T18:34:33.286Z,7.73
2023-04-18T18:37:04.160Z,7.93
2023-04-18T18:39:32.725Z,8.80
2023-04-18T18:42:02.760Z,10.50
2023-04-18T18:44:34.272Z,11.10
2023-04-18T18:47:03.441Z,10.43
2023-04-18T18:49:32.438Z,7.70
2023-04-18T18:52:04.325Z,10.30
2023-04-18T18:54:32.802Z,9.53
2023-04-18T18:57:06.981Z,10.00
2023-04-18T18:59:39.966Z,8.10
2023-04-18T19:02:09.272Z,8.63
2023-04-18T19:04:38.352Z,9.83
2023-04-18T19:07:08.278Z,8.70
2023-04-18T19:09:38.899Z,13.50
2023-04-18T19:12:09.110Z,13.30
2023-04-18T19:14:44.836Z,10.80
2023-04-18T19:17:17.665Z,9.13
2023-04-18T19:19:46.970Z,9.17
2023-04-18T19:22:17.597Z,8.87
2023-04-18T19:24:46.948Z,12.60
2023-04-18T19:27:17.917Z,9.00
2023-04-18T19:29:49.862Z,11.27
2023-04-18T19:32:21.082Z,9.60
2023-04-18T19:34:52.542Z,8.57
2023-04-18T19:37:24.104Z,10.53
2023-04-18T19:39:57.712Z,9.80
2023-04-18T19:42:27.190Z,13.47
2023-04-18T19:44:59.405Z,12.03
2023-04-18T19:47:32.489Z,17.77
2023-04-18T19:50:02.696Z,13.00
2023-04-18T19:52:34.531Z,15.60
2023-04-18T19:55:07.582Z,16.80
2023-04-18T19:57:43.282Z,14.83
2023-04-18T20:00:21.156Z,14.40
2023-04-18T20:02:52.038Z,9.80
2023-04-18T20:05:23.345Z,12.53
2023-04-18T20:07:52.344Z,10.70
2023-04-18T20:10:22.748Z,10.57
2023-04-18T20:12:51.838Z,11.30
2023-04-18T20:15:23.337Z,10.03
2023-04-18T20:17:56.924Z,10.17
2023-04-18T20:20:30.683Z,9.60
2023-04-18T20:23:04.149Z,9.13
2023-04-18T20:25:43.725Z,12.27
2023-04-18T20:28:13.995Z,11.40
2023-04-18T20:30:48.106Z,10.40
2023-04-18T20:33:19.056Z,11.20
2023-04-18T20:35:50.131Z,9.43
2023-04-18T20:38:20.471Z,12.50
2023-04-18T20:40:53.206Z,11.33
2023-04-18T20:43:24.644Z,10.30
2023-04-18T20:45:57.765Z,9.43
2023-04-18T20:48:31.998Z,8.70
2023-04-18T20:51:01.147Z,10.60
2023-04-18T20:53:30.621Z,10.60
2023-04-18T20:56:01.926Z,10.67
2023-04-18T20:58:31.260Z,14.43
2023-04-18T21:01:03.481Z,8.83
2023-04-18T21:03:34.240Z,10.97
2023-04-18T21:06:06.838Z,8.63
2023-04-18T21:08:37.990Z,9.77
2023-04-18T21:11:08.122Z,12.07
2023-04-18T21:13:39.239Z,10.27
2023-04-18T21:16:11.089Z,10.30
2023-04-18T21:18:44.466Z,9.93
2023-04-18T21:21:15.375Z,10.33
2023-04-18T21:23:45.319Z,10.80
2023-04-18T21:26:17.556Z,9.80
2023-04-18T21:29:00.585Z,11.80
2023-04-18T21:31:35.368Z,14.00
2023-04-18T21:34:06.971Z,11.97
2023-04-18T21:36:40.392Z,10.13
2023-04-18T21:39:12.617Z,10.77
2023-04-18T21:41:43.368Z,10.10
2023-04-18T21:44:14.203Z,13.03
2023-04-18T21:46:50.494Z,15.37
2023-04-18T21:49:19.608Z,13.60
2023-04-18T21:51:50.558Z,9.50
2023-04-18T21:54:18.989Z,11.20
2023-04-18T21:56:50.624Z,12.10
2023-04-18T21:59:19.549Z,10.30
2023-04-18T22:01:50.634Z,12.27
2023-04-18T22:04:22.404Z,10.40
2023-04-18T22:06:54.177Z,12.20
2023-04-18T22:09:23.322Z,12.67
2023-04-18T22:11:57.978Z,18.43
2023-04-18T22:14:28.109Z,11.77
2023-04-18T22:16:58.771Z,13.40
2023-04-18T22:19:31.648Z,12.70
2023-04-18T22:22:01.616Z,19.07
2023-04-18T22:24:30.425Z,15.47
2023-04-18T22:27:01.348Z,13.00
2023-04-18T22:29:30.873Z,11.60
2023-04-18T22:32:04.412Z,13.73
2023-04-18T22:34:34.424Z,15.60
2023-04-18T22:37:05.861Z,12.97
2023-04-18T22:39:36.188Z,10.57
2023-04-18T22:42:07.773Z,13.70
2023-04-18T22:44:38.855Z,13.03
2023-04-18T22:47:09.065Z,14.30
2023-04-18T22:49:40.414Z,19.30
2023-04-18T22:52:10.347Z,16.03
2023-04-18T22:54:43.687Z,18.53
2023-04-18T22:57:14.339Z,14.13
2023-04-18T22:59:43.421Z,14.27
2023-04-18T23:02:14.586Z,16.83
2023-04-18T23:04:46.361Z,16.47
2023-04-18T23:07:15.418Z,16.10
2023-04-18T23:09:47.684Z,13.23
2023-04-18T23:12:23.486Z,17.00
2023-04-18T23:14:56.876Z,17.40
2023-04-18T23:17:28.871Z,19.57
2023-04-18T23:19:58.269Z,15.23
2023-04-18T23:22:27.561Z,16.40
2023-04-18T23:24:58.696Z,17.93
2023-04-18T23:27:27.721Z,15.43
2023-04-18T23:29:58.683Z,14.90
2023-04-18T23:32:34.857Z,14.27
2023-04-18T23:35:04.475Z,14.57
2023-04-18T23:37:34.219Z,17.43
2023-04-18T23:40:06.852Z,18.73
2023-04-18T23:42:47.081Z,15.17
2023-04-18T23:45:16.062Z,15.03
2023-04-18T23:47:47.668Z,15.60
2023-04-18T23:50:17.448Z,17.43
2023-04-18T23:52:46.629Z,17.57
2023-04-18T23:55:17.388Z,16.93
2023-04-18T23:57:47.172Z,18.63
